Grand Rapids, Michigan
Current Conditions -  °F | °C
As of 12:53 AM on Sunday 26 Oct 2014 (Local Time) from KGRR Reporting Station
Clear Clear  
Wind Chill: 54°   Ceiling: Unl
Heat Index: 54°   Visibility: 10mi
Dew Point: 34°   Wind: 12mph
Humidity: 47%   Direction: 290°WNW
Pressure: 29.88"   Gusts: NA
Location:  42.97°N, 85.67°W
Report Text: KGRR 260453Z AUTO 29010KT 10SM CLR 12/01 A2988 RMK AO2 SLP118 T01220011 401940078
Loading
Personal Weather Stations






























Interactive Weather Map New forecast layout! Learn more

10-Day Weather Forecast

Advertisements
Track Severe Weather on mobile